createdAt,value
2019-01-16T00:00:11.801Z,92.35
2019-01-16T00:01:11.764Z,92.46
2019-01-16T00:02:11.791Z,91.52
2019-01-16T00:03:11.733Z,92.31
2019-01-16T00:04:11.803Z,92.55
2019-01-16T00:05:11.730Z,91.69
2019-01-16T00:06:11.818Z,91.58
2019-01-16T00:07:11.693Z,91.38
2019-01-16T00:08:11.728Z,91.58
2019-01-16T00:09:11.668Z,91.69
2019-01-16T00:10:11.768Z,91.07
2019-01-16T00:11:11.643Z,91.28
2019-01-16T00:12:11.660Z,90.76
2019-01-16T00:13:11.644Z,91.38
2019-01-16T00:14:11.668Z,91.17
2019-01-16T00:15:11.614Z,91.28
2019-01-16T00:16:11.685Z,90.76
2019-01-16T00:17:11.579Z,90.97
2019-01-16T00:18:17.029Z,91.28
2019-01-16T00:19:12.553Z,91.28
2019-01-16T00:20:11.642Z,91.28
2019-01-16T00:21:11.536Z,91.07
2019-01-16T00:22:11.620Z,90.76
2019-01-16T00:23:11.513Z,90.97
2019-01-16T00:24:11.532Z,91.28
2019-01-16T00:25:11.507Z,91.38
2019-01-16T00:26:11.550Z,91.07
2019-01-16T00:27:11.470Z,90.25
2019-01-16T00:28:11.561Z,90.97
2019-01-16T00:29:11.449Z,90.76
2019-01-16T00:30:11.510Z,90.49
2019-01-16T00:31:11.433Z,89.62
2019-01-16T00:32:13.433Z,89.94
2019-01-16T00:33:11.398Z,90.66
2019-01-16T00:34:19.386Z,90.45
2019-01-16T00:35:11.395Z,90.14
2019-01-16T00:36:11.413Z,90.35
2019-01-16T00:37:11.362Z,90.25
2019-01-16T00:38:11.427Z,89.83
2019-01-16T00:39:11.332Z,89.87
2019-01-16T00:40:11.358Z,90.59
2019-01-16T00:41:11.711Z,90.14
2019-01-16T00:42:11.345Z,89.87
2019-01-16T00:43:11.302Z,90.08
2019-01-16T00:44:11.357Z,90.08
2019-01-16T00:45:11.345Z,89.32
2019-01-16T00:46:11.268Z,89.15
2019-01-16T00:47:11.246Z,89.56
2019-01-16T00:48:11.282Z,89.98
2019-01-16T00:49:11.226Z,90.39
2019-01-16T00:50:11.299Z,90.19
2019-01-16T00:51:11.213Z,90.19
2019-01-16T00:52:11.209Z,90.08
2019-01-16T00:53:11.176Z,90.19
2019-01-16T00:54:11.222Z,90.08
2019-01-16T00:55:11.156Z,90.28
2019-01-16T00:56:11.280Z,89.77
2019-01-16T00:57:11.140Z,89.87
2019-01-16T00:58:11.146Z,90.49
2019-01-16T00:59:11.239Z,89.98
2019-01-16T01:00:11.160Z,89.46
2019-01-16T01:01:11.107Z,89.87
2019-01-16T01:02:11.174Z,89.98
2019-01-16T01:03:11.068Z,90.08
2019-01-16T01:04:11.086Z,89.87
2019-01-16T01:05:11.047Z,89.98
2019-01-16T01:06:11.137Z,90.49
2019-01-16T01:07:11.022Z,90.19
2019-01-16T01:08:11.112Z,90.08
2019-01-16T01:09:11.002Z,90.08
2019-01-16T01:10:11.026Z,90.08
2019-01-16T01:11:10.997Z,90.08
2019-01-16T01:12:11.039Z,89.77
2019-01-16T01:13:10.957Z,89.87
2019-01-16T01:14:11.052Z,90.28
2019-01-16T01:15:10.933Z,89.81
2019-01-16T01:16:13.042Z,90.02
2019-01-16T01:17:10.912Z,90.53
2019-01-16T01:18:17.942Z,90.84
2019-01-16T01:19:10.892Z,90.80
2019-01-16T01:20:19.902Z,90.74
2019-01-16T01:21:10.886Z,90.95
2019-01-16T01:22:10.905Z,91.16
2019-01-16T01:23:10.848Z,90.28
2019-01-16T01:24:11.943Z,89.92
2019-01-16T01:25:10.826Z,90.12
2019-01-16T01:26:10.855Z,89.92
2019-01-16T01:27:10.808Z,90.74
2019-01-16T01:28:10.845Z,90.39
2019-01-16T01:29:10.785Z,90.59
2019-01-16T01:30:10.854Z,90.84
2019-01-16T01:31:10.773Z,90.74
2019-01-16T01:32:10.773Z,91.16
2019-01-16T01:33:10.739Z,91.26
2019-01-16T01:34:10.785Z,90.84
2019-01-16T01:35:10.714Z,90.74
2019-01-16T01:36:10.824Z,90.95
2019-01-16T01:37:10.694Z,91.26
2019-01-16T01:38:10.712Z,90.95
2019-01-16T01:39:10.670Z,91.16
2019-01-16T01:40:10.717Z,90.95
2019-01-16T01:41:10.662Z,90.02
2019-01-16T01:42:10.731Z,90.33
2019-01-16T01:43:10.624Z,90.33
2019-01-16T01:44:10.651Z,90.33
2019-01-16T01:45:10.602Z,90.02
2019-01-16T01:46:10.656Z,90.43
2019-01-16T01:47:10.601Z,90.22
2019-01-16T01:48:10.670Z,90.22
2019-01-16T01:49:10.561Z,90.22
2019-01-16T01:50:10.595Z,89.87
2019-01-16T01:51:11.897Z,89.29
2019-01-16T01:52:10.629Z,90.08
2019-01-16T01:53:10.524Z,89.77
2019-01-16T01:54:10.608Z,90.12
2019-01-16T01:55:10.493Z,89.71
2019-01-16T01:56:10.524Z,89.81
2019-01-16T01:57:10.507Z,90.43
2019-01-16T01:58:10.533Z,90.28
2019-01-16T01:59:10.454Z,90.59
2019-01-16T02:00:11.921Z,90.22
2019-01-16T02:01:10.431Z,90.28
2019-01-16T02:02:12.535Z,90.64
2019-01-16T02:03:10.406Z,90.33
2019-01-16T02:04:33.524Z,89.50
2019-01-16T02:05:10.382Z,89.05
2019-01-16T02:06:10.387Z,88.43
2019-01-16T02:07:10.373Z,88.53
2019-01-16T02:08:10.403Z,89.15
2019-01-16T02:09:10.338Z,89.15
2019-01-16T02:10:12.362Z,89.36
2019-01-16T02:11:10.320Z,89.25
2019-01-16T02:12:10.356Z,89.25
2019-01-16T02:13:10.296Z,89.40
2019-01-16T02:14:10.340Z,90.22
2019-01-16T02:15:10.273Z,89.15
2019-01-16T02:16:10.352Z,89.40
2019-01-16T02:17:10.272Z,89.09
2019-01-16T02:18:10.265Z,89.29
2019-01-16T02:19:10.235Z,89.09
2019-01-16T02:20:10.280Z,89.05
2019-01-16T02:21:10.208Z,88.64
2019-01-16T02:22:10.315Z,88.95
2019-01-16T02:23:10.188Z,89.05
2019-01-16T02:24:10.200Z,89.19
2019-01-16T02:25:10.160Z,88.95
2019-01-16T02:26:10.215Z,89.05
2019-01-16T02:27:10.152Z,89.15
2019-01-16T02:28:10.229Z,89.25
2019-01-16T02:29:10.116Z,88.95
2019-01-16T02:30:10.139Z,89.15
2019-01-16T02:31:10.094Z,89.46
2019-01-16T02:32:10.188Z,89.92
2019-01-16T02:33:10.074Z,89.05
2019-01-16T02:34:10.171Z,89.61
2019-01-16T02:35:10.049Z,89.87
2019-01-16T02:36:10.080Z,89.46
2019-01-16T02:37:10.443Z,88.95
2019-01-16T02:38:10.132Z,89.29
2019-01-16T02:39:10.010Z,89.40
2019-01-16T02:40:10.112Z,89.05
2019-01-16T02:41:09.990Z,89.36
2019-01-16T02:42:10.020Z,89.92
2019-01-16T02:43:09.986Z,89.25
2019-01-16T02:44:10.039Z,89.36
2019-01-16T02:45:09.956Z,88.84
2019-01-16T02:46:10.050Z,89.15
2019-01-16T02:47:09.921Z,88.95
2019-01-16T02:48:09.983Z,88.64
2019-01-16T02:49:09.898Z,88.95
2019-01-16T02:50:09.971Z,89.05
2019-01-16T02:51:09.874Z,88.64
2019-01-16T02:52:09.886Z,88.74
2019-01-16T02:53:09.865Z,89.05
2019-01-16T02:54:09.898Z,89.09
2019-01-16T02:55:09.828Z,88.43
2019-01-16T02:56:09.910Z,89.15
2019-01-16T02:57:09.811Z,88.95
2019-01-16T02:58:09.848Z,89.15
2019-01-16T02:59:09.789Z,89.05
2019-01-16T03:00:09.835Z,89.36
2019-01-16T03:01:09.762Z,90.08
2019-01-16T03:02:09.849Z,90.08
2019-01-16T03:03:09.758Z,90.08
2019-01-16T03:04:09.759Z,90.08
2019-01-16T03:05:09.723Z,89.36
2019-01-16T03:06:09.772Z,89.25
2019-01-16T03:07:09.702Z,89.05
2019-01-16T03:08:09.812Z,89.77
2019-01-16T03:09:09.681Z,89.98
2019-01-16T03:10:09.696Z,90.08
2019-01-16T03:11:09.652Z,89.25
2019-01-16T03:12:09.712Z,89.05
2019-01-16T03:13:09.644Z,89.15
2019-01-16T03:14:09.727Z,89.46
2019-01-16T03:15:09.611Z,89.15
2019-01-16T03:16:09.640Z,88.95
2019-01-16T03:17:09.585Z,89.15
2019-01-16T03:18:09.677Z,89.36
2019-01-16T03:19:09.564Z,89.56
2019-01-16T03:20:09.662Z,89.15
2019-01-16T03:21:09.544Z,89.36
2019-01-16T03:22:09.574Z,88.95
2019-01-16T03:23:09.551Z,89.25
2019-01-16T03:24:09.587Z,88.74
2019-01-16T03:25:09.502Z,88.84
2019-01-16T03:26:09.498Z,89.25
2019-01-16T03:27:09.488Z,89.36
2019-01-16T03:28:09.545Z,89.15
2019-01-16T03:29:09.453Z,89.36
2019-01-16T03:30:09.533Z,88.84
2019-01-16T03:31:09.430Z,88.49
2019-01-16T03:32:09.441Z,88.43
2019-01-16T03:33:09.449Z,88.22
2019-01-16T03:34:24.413Z,88.53
2019-01-16T03:35:09.530Z,88.84
2019-01-16T03:36:10.386Z,88.32
2019-01-16T03:37:09.414Z,88.22
2019-01-16T03:38:09.418Z,88.18
2019-01-16T03:39:09.358Z,88.18
2019-01-16T03:40:09.427Z,88.29
2019-01-16T03:41:09.319Z,88.84
2019-01-16T03:42:09.419Z,88.84
2019-01-16T03:43:09.296Z,88.32
2019-01-16T03:44:09.350Z,88.39
2019-01-16T03:45:09.277Z,88.53
2019-01-16T03:46:09.335Z,88.32
2019-01-16T03:47:09.252Z,87.98
2019-01-16T03:48:09.345Z,87.77
2019-01-16T03:49:13.598Z,87.66
2019-01-16T03:50:09.258Z,88.08
2019-01-16T03:51:09.218Z,88.18
2019-01-16T03:52:09.268Z,88.22
2019-01-16T03:53:09.188Z,88.08
2019-01-16T03:54:09.217Z,88.32
2019-01-16T03:55:09.162Z,87.87
2019-01-16T03:56:09.198Z,87.66
2019-01-16T03:57:09.145Z,87.87
2019-01-16T03:58:09.208Z,87.46
2019-01-16T03:59:09.132Z,87.56
2019-01-16T04:00:09.222Z,88.08
2019-01-16T04:01:09.097Z,88.18
2019-01-16T04:02:09.143Z,87.98
2019-01-16T04:03:09.077Z,87.46
2019-01-16T04:04:09.177Z,87.87
2019-01-16T04:05:09.056Z,87.77
2019-01-16T04:06:09.056Z,87.66
2019-01-16T04:07:09.034Z,87.66
2019-01-16T04:08:09.074Z,87.87
2019-01-16T04:09:09.032Z,87.66
2019-01-16T04:10:09.084Z,87.56
2019-01-16T04:11:08.987Z,87.56
2019-01-16T04:12:08.995Z,87.87
2019-01-16T04:13:08.978Z,87.15
2019-01-16T04:14:09.034Z,87.98
2019-01-16T04:15:08.941Z,88.29
2019-01-16T04:16:09.024Z,87.66
2019-01-16T04:17:09.341Z,88.39
2019-01-16T04:18:10.983Z,87.15
2019-01-16T04:19:08.913Z,87.87
2019-01-16T04:20:15.921Z,87.87
2019-01-16T04:21:08.876Z,87.87
2019-01-16T04:22:09.889Z,87.46
2019-01-16T04:23:08.855Z,87.98
2019-01-16T04:24:08.902Z,87.87
2019-01-16T04:25:08.897Z,87.56
2019-01-16T04:26:08.892Z,87.98
2019-01-16T04:27:08.810Z,87.87
2019-01-16T04:28:08.904Z,87.66
2019-01-16T04:29:08.838Z,87.35
2019-01-16T04:30:08.817Z,87.66
2019-01-16T04:31:08.780Z,87.46
2019-01-16T04:32:08.824Z,87.87
2019-01-16T04:33:08.745Z,86.84
2019-01-16T04:34:08.843Z,86.53
2019-01-16T04:35:08.743Z,87.15
2019-01-16T04:36:08.755Z,86.39
2019-01-16T04:37:08.714Z,87.77
2019-01-16T04:38:08.763Z,87.66
2019-01-16T04:39:08.690Z,87.66
2019-01-16T04:40:08.701Z,87.87
2019-01-16T04:41:08.660Z,87.56
2019-01-16T04:42:08.690Z,87.77
2019-01-16T04:43:08.652Z,87.77
2019-01-16T04:44:09.979Z,86.84
2019-01-16T04:45:08.629Z,86.74
2019-01-16T04:46:08.613Z,86.94
2019-01-16T04:47:08.601Z,87.05
2019-01-16T04:48:08.628Z,87.63
2019-01-16T04:49:08.569Z,87.77
2019-01-16T04:50:08.672Z,87.56
2019-01-16T04:51:08.546Z,87.87
2019-01-16T04:52:08.553Z,87.98
2019-01-16T04:53:08.538Z,87.46
2019-01-16T04:54:08.565Z,87.77
2019-01-16T04:55:08.529Z,86.84
2019-01-16T04:56:08.580Z,86.94
2019-01-16T04:57:08.485Z,86.84
2019-01-16T04:58:08.491Z,87.77
2019-01-16T04:59:08.473Z,86.90
2019-01-16T05:00:08.533Z,87.73
2019-01-16T05:01:08.437Z,87.73
2019-01-16T05:02:08.519Z,87.66
2019-01-16T05:03:08.414Z,87.56
2019-01-16T05:04:15.393Z,87.21
2019-01-16T05:05:08.406Z,87.63
2019-01-16T05:06:23.402Z,87.73
2019-01-16T05:07:08.374Z,86.74
2019-01-16T05:08:09.783Z,87.83
2019-01-16T05:09:08.347Z,87.63
2019-01-16T05:10:08.398Z,87.73
2019-01-16T05:11:08.330Z,87.56
2019-01-16T05:12:08.387Z,87.66
2019-01-16T05:13:08.306Z,87.73
2019-01-16T05:14:08.403Z,87.52
2019-01-16T05:15:08.302Z,86.74
2019-01-16T05:16:08.309Z,87.56
2019-01-16T05:17:08.271Z,87.63
2019-01-16T05:18:08.362Z,87.56
2019-01-16T05:19:08.248Z,87.77
2019-01-16T05:20:08.268Z,87.46
2019-01-16T05:21:08.217Z,87.83
2019-01-16T05:22:08.248Z,86.63
2019-01-16T05:23:08.197Z,86.80
2019-01-16T05:24:08.265Z,86.70
2019-01-16T05:25:08.185Z,86.90
2019-01-16T05:26:08.293Z,86.94
2019-01-16T05:27:08.155Z,87.77
2019-01-16T05:28:08.188Z,86.70
2019-01-16T05:29:08.127Z,86.60
2019-01-16T05:30:08.227Z,86.70
2019-01-16T05:31:08.104Z,86.70
2019-01-16T05:32:09.137Z,87.63
2019-01-16T05:33:08.083Z,86.70
2019-01-16T05:34:08.123Z,86.80
2019-01-16T05:35:08.075Z,87.63
2019-01-16T05:36:08.137Z,86.80
2019-01-16T05:37:08.040Z,86.80
2019-01-16T05:38:08.048Z,87.73
2019-01-16T05:39:08.017Z,87.01
2019-01-16T05:40:08.094Z,87.73
2019-01-16T05:41:07.995Z,86.70
2019-01-16T05:42:08.081Z,86.18
2019-01-16T05:43:07.975Z,86.84
2019-01-16T05:44:07.990Z,87.73
2019-01-16T05:45:07.966Z,87.66
2019-01-16T05:46:08.007Z,87.56
2019-01-16T05:47:07.931Z,87.63
2019-01-16T05:48:08.015Z,86.94
2019-01-16T05:49:07.906Z,86.80
2019-01-16T05:50:07.962Z,87.63
2019-01-16T05:51:07.901Z,86.63
2019-01-16T05:52:07.940Z,87.83
2019-01-16T05:53:07.866Z,87.63
2019-01-16T05:54:07.953Z,87.73
2019-01-16T05:55:07.840Z,86.94
2019-01-16T05:56:07.910Z,87.73
2019-01-16T05:57:07.820Z,86.60
2019-01-16T05:58:07.877Z,87.73
2019-01-16T05:59:07.799Z,87.11
2019-01-16T06:00:07.894Z,86.90
2019-01-16T06:01:07.798Z,86.74
2019-01-16T06:02:07.804Z,86.39
2019-01-16T06:03:07.758Z,87.73
2019-01-16T06:04:07.820Z,87.05
2019-01-16T06:05:07.729Z,86.60
2019-01-16T06:06:07.757Z,86.60
2019-01-16T06:07:07.760Z,86.80
2019-01-16T06:08:07.754Z,87.42
2019-01-16T06:09:07.691Z,86.43
2019-01-16T06:10:07.767Z,86.32
2019-01-16T06:11:07.691Z,86.84
2019-01-16T06:12:07.668Z,86.39
2019-01-16T06:13:07.646Z,86.39
2019-01-16T06:14:07.682Z,86.94
2019-01-16T06:15:07.639Z,86.94
2019-01-16T06:16:07.769Z,86.70
2019-01-16T06:17:07.602Z,86.53
2019-01-16T06:18:07.613Z,86.70
2019-01-16T06:19:07.585Z,86.08
2019-01-16T06:20:07.621Z,86.08
2019-01-16T06:21:07.573Z,87.52
2019-01-16T06:22:07.646Z,86.63
2019-01-16T06:23:07.545Z,86.63
2019-01-16T06:24:07.548Z,86.43
2019-01-16T06:25:07.527Z,87.35
2019-01-16T06:26:07.585Z,87.15
2019-01-16T06:27:07.488Z,87.66
2019-01-16T06:28:07.574Z,87.93
2019-01-16T06:29:07.474Z,86.94
2019-01-16T06:30:07.484Z,87.05
2019-01-16T06:31:07.465Z,86.84
2019-01-16T06:32:07.500Z,87.63
2019-01-16T06:33:07.423Z,86.49
2019-01-16T06:34:07.512Z,86.53
2019-01-16T06:35:07.409Z,85.91
2019-01-16T06:36:10.938Z,86.94
2019-01-16T06:37:07.380Z,86.32
2019-01-16T06:38:14.402Z,86.32
2019-01-16T06:39:07.360Z,86.08
2019-01-16T06:40:08.374Z,85.81
2019-01-16T06:41:07.338Z,86.32
2019-01-16T06:42:07.387Z,86.39
2019-01-16T06:43:07.321Z,86.39
2019-01-16T06:44:07.378Z,86.49
2019-01-16T06:45:07.293Z,86.39
2019-01-16T06:46:07.405Z,85.97
2019-01-16T06:47:07.290Z,86.39
2019-01-16T06:48:07.301Z,86.80
2019-01-16T06:49:07.257Z,86.49
2019-01-16T06:50:07.314Z,86.18
2019-01-16T06:51:07.230Z,86.60
2019-01-16T06:52:07.252Z,86.32
2019-01-16T06:53:07.217Z,86.39
2019-01-16T06:54:07.241Z,86.29
2019-01-16T06:55:07.194Z,86.49
2019-01-16T06:56:07.259Z,86.74
2019-01-16T06:57:07.190Z,86.53
2019-01-16T06:58:07.290Z,86.53
2019-01-16T06:59:07.144Z,86.60
2019-01-16T07:00:07.180Z,86.84
2019-01-16T07:01:07.135Z,86.94
2019-01-16T07:02:07.220Z,86.84
2019-01-16T07:03:07.115Z,86.84
2019-01-16T07:04:07.108Z,86.94
2019-01-16T07:05:07.076Z,86.94
2019-01-16T07:06:07.123Z,86.32
2019-01-16T07:07:07.080Z,86.84
2019-01-16T07:08:07.136Z,86.63
2019-01-16T07:09:07.035Z,86.53
2019-01-16T07:10:07.048Z,87.01
2019-01-16T07:11:07.020Z,87.05
2019-01-16T07:12:07.098Z,87.52
2019-01-16T07:13:06.999Z,87.66
2019-01-16T07:14:07.076Z,87.73
2019-01-16T07:15:06.968Z,87.87
2019-01-16T07:16:06.987Z,87.98
2019-01-16T07:17:06.973Z,87.87
2019-01-16T07:18:07.001Z,87.77
2019-01-16T07:19:06.926Z,87.87
2019-01-16T07:20:09.891Z,87.77
2019-01-16T07:21:06.907Z,87.87
2019-01-16T07:22:06.961Z,87.56
2019-01-16T07:23:07.863Z,87.98
2019-01-16T07:24:13.912Z,87.87
2019-01-16T07:25:06.863Z,87.98
2019-01-16T07:26:06.955Z,87.66
2019-01-16T07:27:06.898Z,87.87
2019-01-16T07:28:06.867Z,87.87
2019-01-16T07:29:06.820Z,87.87
2019-01-16T07:30:06.878Z,87.98
2019-01-16T07:31:06.799Z,88.18
2019-01-16T07:32:06.925Z,88.18
2019-01-16T07:33:06.779Z,88.18
2019-01-16T07:34:06.803Z,87.98
2019-01-16T07:35:06.753Z,88.18
2019-01-16T07:36:06.809Z,88.08
2019-01-16T07:37:06.755Z,88.18
2019-01-16T07:38:06.823Z,88.80
2019-01-16T07:39:06.708Z,88.59
2019-01-16T07:40:06.736Z,88.70
2019-01-16T07:41:06.688Z,88.90
2019-01-16T07:42:06.791Z,88.49
2019-01-16T07:43:06.665Z,88.70
2019-01-16T07:44:06.762Z,88.49
2019-01-16T07:45:06.650Z,88.90
2019-01-16T07:46:06.676Z,89.11
2019-01-16T07:47:07.055Z,89.42
2019-01-16T07:48:06.687Z,89.22
2019-01-16T07:49:06.604Z,89.52
2019-01-16T07:50:06.699Z,89.83
2019-01-16T07:51:06.581Z,89.94
2019-01-16T07:52:06.615Z,89.87
2019-01-16T07:53:06.575Z,90.25
2019-01-16T07:54:06.685Z,91.07
2019-01-16T07:55:06.558Z,91.42
2019-01-16T07:56:06.541Z,91.11
2019-01-16T07:57:06.546Z,90.59
2019-01-16T07:58:06.594Z,91.32
2019-01-16T07:59:06.495Z,91.11
2019-01-16T08:00:06.582Z,91.42
2019-01-16T08:01:06.470Z,91.17
2019-01-16T08:02:06.479Z,90.76
2019-01-16T08:03:06.482Z,91.22
2019-01-16T08:04:06.502Z,91.11
2019-01-16T08:05:06.432Z,90.97
2019-01-16T08:06:06.515Z,90.91
2019-01-16T08:07:06.406Z,91.22
2019-01-16T08:08:09.936Z,91.11
2019-01-16T08:09:06.381Z,91.11
2019-01-16T08:10:13.801Z,91.17
2019-01-16T08:11:06.415Z,91.22
2019-01-16T08:12:06.444Z,90.70
2019-01-16T08:13:06.352Z,91.11
2019-01-16T08:14:06.373Z,91.11
2019-01-16T08:15:06.318Z,91.42
2019-01-16T08:16:06.374Z,91.11
2019-01-16T08:17:06.299Z,91.22
2019-01-16T08:18:06.416Z,91.22
2019-01-16T08:19:06.330Z,90.80
2019-01-16T08:20:06.300Z,91.01
2019-01-16T08:21:06.266Z,90.80
2019-01-16T08:22:06.322Z,90.59
2019-01-16T08:23:06.258Z,90.76
2019-01-16T08:24:06.322Z,91.22
2019-01-16T08:25:06.209Z,90.70
2019-01-16T08:26:06.235Z,89.87
2019-01-16T08:27:06.212Z,90.08
2019-01-16T08:28:06.295Z,89.87
2019-01-16T08:29:06.172Z,90.39
2019-01-16T08:30:06.277Z,90.39
2019-01-16T08:31:06.168Z,90.19
2019-01-16T08:32:06.175Z,90.70
2019-01-16T08:33:06.139Z,90.28
2019-01-16T08:34:06.189Z,90.39
2019-01-16T08:35:07.361Z,90.39
2019-01-16T08:36:06.316Z,89.87
2019-01-16T08:37:06.082Z,90.28
2019-01-16T08:38:07.209Z,89.98
2019-01-16T08:39:06.054Z,89.98
2019-01-16T08:40:06.136Z,90.28
2019-01-16T08:41:07.336Z,89.98
2019-01-16T08:42:06.052Z,90.19
2019-01-16T08:43:06.025Z,89.87
2019-01-16T08:44:13.441Z,90.08
2019-01-16T08:45:06.986Z,90.19
2019-01-16T08:46:06.078Z,89.98
2019-01-16T08:47:05.966Z,89.56
2019-01-16T08:48:06.114Z,89.36
2019-01-16T08:49:05.980Z,90.08
2019-01-16T08:50:05.998Z,89.87
2019-01-16T08:51:05.922Z,89.15
2019-01-16T08:52:06.098Z,89.67
2019-01-16T08:53:05.915Z,89.67
2019-01-16T08:54:05.949Z,90.08
2019-01-16T08:55:05.880Z,89.36
2019-01-16T08:56:05.952Z,89.36
2019-01-16T08:57:05.882Z,89.67
2019-01-16T08:58:05.939Z,90.08
2019-01-16T08:59:05.850Z,90.08
2019-01-16T09:00:05.863Z,88.90
2019-01-16T09:01:05.869Z,89.05
2019-01-16T09:02:05.863Z,89.05
2019-01-16T09:03:05.792Z,90.08
2019-01-16T09:04:05.907Z,89.67
2019-01-16T09:05:05.769Z,90.08
2019-01-16T09:06:05.787Z,89.77
2019-01-16T09:07:05.755Z,90.39
2019-01-16T09:08:05.804Z,89.92
2019-01-16T09:09:05.738Z,90.19
2019-01-16T09:10:05.815Z,90.08
2019-01-16T09:11:05.705Z,89.36
2019-01-16T09:12:05.732Z,89.25
2019-01-16T09:13:05.716Z,89.25
2019-01-16T09:14:05.809Z,89.40
2019-01-16T09:15:05.668Z,89.46
2019-01-16T09:16:05.754Z,90.08
2019-01-16T09:17:05.637Z,89.98
2019-01-16T09:18:05.665Z,90.08
2019-01-16T09:19:05.636Z,89.87
2019-01-16T09:20:05.682Z,89.87
2019-01-16T09:21:05.594Z,89.67
2019-01-16T09:22:05.700Z,89.87
2019-01-16T09:23:05.574Z,89.36
2019-01-16T09:24:05.635Z,89.87
2019-01-16T09:25:05.551Z,90.12
2019-01-16T09:26:05.620Z,90.08
2019-01-16T09:27:05.529Z,90.22
2019-01-16T09:28:05.531Z,89.36
2019-01-16T09:29:05.528Z,89.19
2019-01-16T09:30:05.549Z,89.40
2019-01-16T09:31:05.491Z,89.87
2019-01-16T09:32:05.567Z,89.25
2019-01-16T09:33:05.506Z,89.46
2019-01-16T09:34:05.495Z,89.40
2019-01-16T09:35:05.442Z,89.15
2019-01-16T09:36:05.485Z,88.89
2019-01-16T09:37:05.429Z,88.84
2019-01-16T09:38:05.500Z,88.74
2019-01-16T09:39:05.429Z,88.64
2019-01-16T09:40:12.474Z,88.53
2019-01-16T09:41:05.378Z,88.32
2019-01-16T09:42:05.426Z,88.32
2019-01-16T09:43:06.285Z,88.84
2019-01-16T09:44:07.384Z,88.43
2019-01-16T09:45:05.351Z,88.95
2019-01-16T09:46:05.348Z,88.22
2019-01-16T09:47:05.315Z,88.22
2019-01-16T09:48:05.363Z,88.22
2019-01-16T09:49:05.301Z,88.43
2019-01-16T09:50:05.414Z,88.53
2019-01-16T09:51:05.274Z,88.32
2019-01-16T09:52:05.290Z,88.02
2019-01-16T09:53:05.250Z,87.60
2019-01-16T09:54:05.300Z,87.92
2019-01-16T09:55:05.254Z,88.02
2019-01-16T09:56:05.313Z,87.50
2019-01-16T09:57:05.206Z,87.71
2019-01-16T09:58:05.223Z,87.81
2019-01-16T09:59:05.186Z,87.81
2019-01-16T10:00:05.270Z,87.60
2019-01-16T10:01:05.184Z,87.50
2019-01-16T10:02:05.249Z,87.50
2019-01-16T10:03:05.137Z,87.71
2019-01-16T10:04:05.164Z,87.60
2019-01-16T10:05:05.135Z,87.71
2019-01-16T10:06:05.180Z,87.19
2019-01-16T10:07:05.091Z,87.71
2019-01-16T10:08:05.189Z,87.50
2019-01-16T10:09:05.072Z,86.98
2019-01-16T10:10:05.131Z,86.68
2019-01-16T10:11:05.061Z,86.57
2019-01-16T10:12:05.116Z,86.78
2019-01-16T10:13:05.028Z,86.47
2019-01-16T10:14:05.024Z,86.98
2019-01-16T10:15:05.021Z,86.98
2019-01-16T10:16:05.040Z,86.78
2019-01-16T10:17:04.983Z,87.29
2019-01-16T10:18:05.057Z,87.71
2019-01-16T10:19:04.957Z,87.81
2019-01-16T10:20:05.002Z,87.71
2019-01-16T10:21:04.939Z,87.95
2019-01-16T10:22:04.979Z,87.71
2019-01-16T10:23:04.921Z,88.06
2019-01-16T10:24:06.019Z,87.81
2019-01-16T10:25:04.930Z,87.23
2019-01-16T10:26:12.925Z,87.95
2019-01-16T10:27:04.878Z,88.06
2019-01-16T10:28:12.397Z,87.65
2019-01-16T10:29:04.858Z,87.92
2019-01-16T10:30:06.902Z,87.74
2019-01-16T10:31:04.842Z,88.26
2019-01-16T10:32:04.841Z,88.26
2019-01-16T10:33:04.815Z,88.37
2019-01-16T10:34:04.860Z,88.89
2019-01-16T10:35:04.780Z,87.95
2019-01-16T10:36:04.908Z,88.26
2019-01-16T10:37:04.765Z,88.41
2019-01-16T10:38:04.780Z,88.47
2019-01-16T10:39:04.739Z,88.98
2019-01-16T10:40:04.796Z,89.13
2019-01-16T10:41:04.774Z,88.78
2019-01-16T10:42:04.811Z,89.29
2019-01-16T10:43:04.701Z,88.68
2019-01-16T10:44:04.720Z,88.61
2019-01-16T10:45:04.681Z,88.89
2019-01-16T10:46:04.772Z,88.68
2019-01-16T10:47:04.680Z,89.23
2019-01-16T10:48:04.747Z,88.78
2019-01-16T10:49:04.630Z,88.26
2019-01-16T10:50:04.657Z,88.68
2019-01-16T10:51:05.278Z,88.57
2019-01-16T10:52:04.672Z,88.57
2019-01-16T10:53:04.605Z,88.57
2019-01-16T10:54:04.691Z,88.06
2019-01-16T10:55:04.574Z,87.74
2019-01-16T10:56:04.626Z,87.85
2019-01-16T10:57:04.556Z,88.06
2019-01-16T10:58:04.611Z,88.06
2019-01-16T10:59:04.530Z,88.31
2019-01-16T11:00:04.643Z,88.06
2019-01-16T11:01:04.516Z,88.68
2019-01-16T11:02:04.552Z,88.78
2019-01-16T11:03:04.485Z,89.40
2019-01-16T11:04:04.572Z,89.40
2019-01-16T11:05:04.457Z,88.92
2019-01-16T11:06:04.488Z,88.82
2019-01-16T11:07:04.431Z,89.65
2019-01-16T11:08:04.504Z,89.44
2019-01-16T11:09:04.411Z,88.92
2019-01-16T11:10:04.502Z,88.71
2019-01-16T11:11:04.423Z,88.82
2019-01-16T11:12:04.420Z,89.23
2019-01-16T11:13:04.367Z,89.44
2019-01-16T11:14:05.466Z,89.03
2019-01-16T11:15:04.351Z,89.13
2019-01-16T11:16:05.362Z,89.23
2019-01-16T11:17:04.361Z,90.68
2019-01-16T11:18:04.354Z,90.06
2019-01-16T11:19:04.299Z,90.37
2019-01-16T11:20:04.356Z,90.47
2019-01-16T11:21:10.812Z,90.26
2019-01-16T11:22:05.354Z,90.47
2019-01-16T11:23:04.252Z,91.09
2019-01-16T11:24:04.293Z,90.16
2019-01-16T11:25:04.232Z,90.58
2019-01-16T11:26:04.290Z,90.06
2019-01-16T11:27:04.625Z,90.99
2019-01-16T11:28:04.333Z,89.95
2019-01-16T11:29:04.191Z,89.03
2019-01-16T11:30:04.226Z,89.13
2019-01-16T11:31:04.172Z,88.78
2019-01-16T11:32:04.366Z,88.82
2019-01-16T11:33:04.147Z,88.06
2019-01-16T11:34:04.262Z,87.74
2019-01-16T11:35:04.523Z,87.02
2019-01-16T11:36:04.153Z,87.13
2019-01-16T11:37:04.156Z,87.74
2019-01-16T11:38:04.180Z,87.79
2019-01-16T11:39:04.087Z,86.71
2019-01-16T11:40:04.809Z,86.71
2019-01-16T11:41:04.059Z,86.10
2019-01-16T11:42:04.118Z,86.16
2019-01-16T11:43:04.038Z,85.54
2019-01-16T11:44:04.107Z,84.72
2019-01-16T11:45:04.012Z,85.02
2019-01-16T11:46:04.029Z,84.30
2019-01-16T11:47:04.013Z,84.20
2019-01-16T11:48:04.038Z,84.41
2019-01-16T11:49:03.973Z,83.89
2019-01-16T11:50:04.057Z,83.27
2019-01-16T11:51:03.947Z,83.33
2019-01-16T11:52:03.988Z,83.03
2019-01-16T11:53:03.926Z,82.40
2019-01-16T11:54:03.990Z,82.40
2019-01-16T11:55:03.903Z,82.47
2019-01-16T11:56:03.999Z,81.79
2019-01-16T11:57:04.308Z,81.48
2019-01-16T11:58:03.912Z,81.48
2019-01-16T11:59:03.868Z,81.17
2019-01-16T12:00:03.924Z,82.26
2019-01-16T12:01:03.859Z,82.57
2019-01-16T12:02:03.956Z,83.23
2019-01-16T12:03:03.823Z,82.61
2019-01-16T12:04:04.242Z,83.44
2019-01-16T12:05:03.799Z,83.13
2019-01-16T12:06:03.852Z,83.23
2019-01-16T12:07:03.773Z,83.44
2019-01-16T12:08:03.887Z,83.27
2019-01-16T12:09:03.752Z,83.33
2019-01-16T12:10:03.782Z,83.37
2019-01-16T12:11:03.729Z,83.44
2019-01-16T12:12:03.795Z,83.23
2019-01-16T12:13:04.126Z,83.37
2019-01-16T12:14:03.823Z,83.06
2019-01-16T12:15:03.759Z,83.58
2019-01-16T12:16:03.710Z,84.41
2019-01-16T12:17:03.662Z,83.78
2019-01-16T12:18:03.751Z,84.51
2019-01-16T12:19:03.643Z,84.34
2019-01-16T12:20:03.746Z,84.13
2019-01-16T12:21:03.630Z,84.13
2019-01-16T12:22:03.657Z,84.86
2019-01-16T12:23:03.626Z,84.65
2019-01-16T12:24:03.669Z,85.58
2019-01-16T12:25:03.578Z,85.99
2019-01-16T12:26:08.025Z,85.31
2019-01-16T12:27:03.566Z,86.03
2019-01-16T12:28:03.685Z,86.03
2019-01-16T12:29:03.530Z,85.72
2019-01-16T12:30:03.621Z,85.86
2019-01-16T12:31:03.523Z,86.69
2019-01-16T12:32:03.548Z,86.34
2019-01-16T12:33:03.509Z,86.49
2019-01-16T12:34:03.546Z,86.79
2019-01-16T12:35:03.471Z,87.00
2019-01-16T12:36:03.552Z,86.44
2019-01-16T12:37:03.448Z,87.41
2019-01-16T12:38:03.484Z,86.90
2019-01-16T12:39:03.435Z,87.31
2019-01-16T12:40:04.503Z,86.49
2019-01-16T12:41:03.397Z,86.90
2019-01-16T12:42:05.432Z,87.31
2019-01-16T12:43:03.397Z,87.97
2019-01-16T12:44:03.401Z,87.93
2019-01-16T12:45:03.368Z,87.56
2019-01-16T12:46:09.964Z,87.46
2019-01-16T12:47:03.339Z,87.31
2019-01-16T12:48:04.425Z,87.83
2019-01-16T12:49:03.314Z,87.93
2019-01-16T12:50:03.343Z,87.93
2019-01-16T12:51:03.307Z,87.10
2019-01-16T12:52:03.358Z,87.10